Time;durP1;ratioP1;P1;durP2;ratioP2;P2;SDS_P1;SDS_P2;PMS_P1;PMS_P2;Temp;Humidity;BMP_temperature;BMP_pressure;BME280_temperature;BME280_humidity;BME280_pressure;Samples;Min_cycle;Max_cycle;Signal;HPM_P1;HPM_P2
2021/10/20 00:01:43;;;;;;;5.50;3.33;;;;;;;;;;5037689;28;20460;-63
2021/10/20 00:04:09;;;;;;;3.37;2.40;;;;;;;;;;5038561;28;20441;-63
2021/10/20 00:06:35;;;;;;;3.57;2.50;;;;;;;;;;5037338;28;20438;-64
2021/10/20 00:09:02;;;;;;;3.47;2.50;;;;;;;;;;5037786;28;20406;-66
2021/10/20 00:11:28;;;;;;;4.03;2.60;;;;;;;;;;5037636;28;20423;-63
2021/10/20 00:13:54;;;;;;;3.90;2.73;;;;;;;;;;5038014;28;20402;-63
2021/10/20 00:16:20;;;;;;;4.33;2.83;;;;;;;;;;5037280;28;20423;-64
2021/10/20 00:18:48;;;;;;;4.20;2.53;;;;;;;;;;5037654;28;20449;-64
2021/10/20 00:21:15;;;;;;;3.00;2.47;;;;;;;;;;5037777;28;20462;-64
2021/10/20 00:23:42;;;;;;;3.40;2.47;;;;;;;;;;5037158;28;20403;-64
2021/10/20 00:26:08;;;;;;;3.60;2.50;;;;;;;;;;5037588;28;20446;-63
2021/10/20 00:28:34;;;;;;;3.60;2.37;;;;;;;;;;5037329;28;20866;-63
2021/10/20 00:31:00;;;;;;;3.73;2.53;;;;;;;;;;5036289;28;20418;-63
2021/10/20 00:33:26;;;;;;;6.70;2.80;;;;;;;;;;5034601;28;20399;-63
2021/10/20 00:35:52;;;;;;;3.27;2.20;;;;;;;;;;5034743;28;20777;-63
2021/10/20 00:38:18;;;;;;;4.47;2.57;;;;;;;;;;5034473;28;20876;-63
2021/10/20 00:40:44;;;;;;;4.07;2.50;;;;;;;;;;5034429;28;20549;-63
2021/10/20 00:43:10;;;;;;;3.13;2.50;;;;;;;;;;5034848;28;20783;-63
2021/10/20 00:45:36;;;;;;;4.93;2.87;;;;;;;;;;5034134;28;20430;-65
2021/10/20 00:48:03;;;;;;;2.93;2.27;;;;;;;;;;5034919;28;20418;-64
2021/10/20 00:50:29;;;;;;;3.80;2.90;;;;;;;;;;5035227;28;20403;-64
2021/10/20 00:52:55;;;;;;;4.57;2.30;;;;;;;;;;5035588;28;20502;-65
2021/10/20 00:55:21;;;;;;;3.87;2.67;;;;;;;;;;5035624;28;20418;-65
2021/10/20 00:57:48;;;;;;;4.23;2.30;;;;;;;;;;5034585;28;20422;-64
2021/10/20 01:00:15;;;;;;;4.70;2.50;;;;;;;;;;5034536;28;20458;-65
2021/10/20 01:02:41;;;;;;;3.20;2.57;;;;;;;;;;5034681;28;20411;-64
2021/10/20 01:05:08;;;;;;;3.83;2.60;;;;;;;;;;5035086;28;20868;-64
2021/10/20 01:07:34;;;;;;;3.90;2.40;;;;;;;;;;5034398;28;20430;-64
2021/10/20 01:10:00;;;;;;;3.90;2.70;;;;;;;;;;5033935;28;20406;-63
2021/10/20 01:12:26;;;;;;;5.87;3.30;;;;;;;;;;5034346;28;20398;-64
2021/10/20 01:14:52;;;;;;;5.50;3.67;;;;;;;;;;5034554;28;20410;-63
2021/10/20 01:17:18;;;;;;;4.63;3.53;;;;;;;;;;5035004;28;20835;-64
2021/10/20 01:19:45;;;;;;;4.77;2.80;;;;;;;;;;5038334;28;20888;-64
2021/10/20 01:22:11;;;;;;;4.00;3.07;;;;;;;;;;5038515;28;20497;-64
2021/10/20 01:24:38;;;;;;;4.03;3.03;;;;;;;;;;5038626;28;20819;-63
2021/10/20 01:27:04;;;;;;;3.57;2.80;;;;;;;;;;5036891;28;20452;-64
2021/10/20 01:29:30;;;;;;;4.23;2.90;;;;;;;;;;5038451;28;20492;-64
2021/10/20 01:31:58;;;;;;;4.80;3.10;;;;;;;;;;5038368;28;20421;-64
2021/10/20 01:34:24;;;;;;;6.13;2.70;;;;;;;;;;5038303;28;20407;-64
2021/10/20 01:36:51;;;;;;;3.90;2.60;;;;;;;;;;5037508;28;20430;-64
2021/10/20 01:39:18;;;;;;;3.43;2.90;;;;;;;;;;5037619;28;20497;-64
2021/10/20 01:41:44;;;;;;;3.90;2.67;;;;;;;;;;5038192;28;20409;-64
2021/10/20 01:44:10;;;;;;;4.20;2.63;;;;;;;;;;5037811;28;20926;-64
2021/10/20 01:46:40;;;;;;;3.23;2.50;;;;;;;;;;5037543;28;20466;-64
2021/10/20 01:49:06;;;;;;;4.80;2.47;;;;;;;;;;5036761;28;20426;-64
2021/10/20 01:51:33;;;;;;;4.60;2.40;;;;;;;;;;5037311;28;20394;-64
2021/10/20 01:53:59;;;;;;;4.30;2.80;;;;;;;;;;5037398;28;20410;-64
2021/10/20 01:56:25;;;;;;;3.60;2.80;;;;;;;;;;5037427;28;20419;-64
2021/10/20 01:58:51;;;;;;;4.30;2.80;;;;;;;;;;5036350;28;20460;-62
2021/10/20 02:01:17;;;;;;;3.90;3.10;;;;;;;;;;5037148;28;20500;-63
2021/10/20 02:03:45;;;;;;;5.20;2.77;;;;;;;;;;5037461;28;20891;-64
2021/10/20 02:06:12;;;;;;;4.07;3.10;;;;;;;;;;5038347;28;20429;-63
2021/10/20 02:08:41;;;;;;;3.97;2.80;;;;;;;;;;5037952;28;20522;-63
2021/10/20 02:11:07;;;;;;;5.87;3.20;;;;;;;;;;5038844;28;20411;-64
2021/10/20 02:13:33;;;;;;;4.97;2.70;;;;;;;;;;5038383;28;20438;-63
2021/10/20 02:15:59;;;;;;;5.30;3.33;;;;;;;;;;5042177;28;20410;-64
2021/10/20 02:18:25;;;;;;;4.77;3.20;;;;;;;;;;5038712;28;20466;-63
2021/10/20 02:20:52;;;;;;;6.53;2.83;;;;;;;;;;5037758;28;20572;-63
2021/10/20 02:23:19;;;;;;;4.50;3.20;;;;;;;;;;5038117;28;20455;-63
2021/10/20 02:25:45;;;;;;;3.27;2.80;;;;;;;;;;5038363;28;20435;-63
2021/10/20 02:28:11;;;;;;;4.77;2.60;;;;;;;;;;5038317;28;20915;-63
2021/10/20 02:30:37;;;;;;;4.73;2.97;;;;;;;;;;5037015;28;20899;-63
2021/10/20 02:33:04;;;;;;;4.23;2.70;;;;;;;;;;5037435;28;20406;-64
2021/10/20 02:35:30;;;;;;;4.60;2.83;;;;;;;;;;5038433;28;20406;-63
2021/10/20 02:37:56;;;;;;;3.37;2.57;;;;;;;;;;5037460;28;20423;-63
2021/10/20 02:40:22;;;;;;;3.80;2.47;;;;;;;;;;5038646;28;20458;-63
2021/10/20 02:42:48;;;;;;;3.30;2.67;;;;;;;;;;5037537;28;20422;-65
2021/10/20 02:45:15;;;;;;;3.80;2.60;;;;;;;;;;5036583;28;20426;-63
2021/10/20 02:47:42;;;;;;;3.67;2.63;;;;;;;;;;5037233;28;20514;-63
2021/10/20 02:50:09;;;;;;;3.60;2.57;;;;;;;;;;5036875;28;20899;-63
2021/10/20 02:52:35;;;;;;;5.17;2.90;;;;;;;;;;5052291;28;20511;-64
2021/10/20 02:55:01;;;;;;;3.30;2.53;;;;;;;;;;5055678;28;20393;-63
2021/10/20 02:57:27;;;;;;;5.70;2.83;;;;;;;;;;5058383;28;20753;-64
2021/10/20 02:59:53;;;;;;;3.77;2.63;;;;;;;;;;5059027;28;20453;-64
2021/10/20 03:02:20;;;;;;;4.23;2.83;;;;;;;;;;5058789;28;20402;-65
2021/10/20 03:04:47;;;;;;;4.47;2.77;;;;;;;;;;5059421;28;20414;-64
2021/10/20 03:07:13;;;;;;;4.63;3.20;;;;;;;;;;5058793;28;20422;-64
2021/10/20 03:09:39;;;;;;;4.47;3.20;;;;;;;;;;5058487;28;20401;-64
2021/10/20 03:12:05;;;;;;;5.60;3.47;;;;;;;;;;5058630;28;20406;-64
2021/10/20 03:14:31;;;;;;;4.20;3.00;;;;;;;;;;5058670;28;20423;-64
2021/10/20 03:16:57;;;;;;;4.70;3.70;;;;;;;;;;5058253;28;20934;-64
2021/10/20 03:19:23;;;;;;;4.00;3.30;;;;;;;;;;5051598;28;20602;-65
2021/10/20 03:21:49;;;;;;;4.23;3.13;;;;;;;;;;5050584;28;20442;-64
2021/10/20 03:24:16;;;;;;;4.50;3.00;;;;;;;;;;5057548;28;20418;-64
2021/10/20 03:26:42;;;;;;;4.10;2.93;;;;;;;;;;5058127;28;20483;-64
2021/10/20 03:29:08;;;;;;;4.37;3.20;;;;;;;;;;5058409;28;20443;-64
2021/10/20 03:31:34;;;;;;;4.33;2.50;;;;;;;;;;5057270;28;20406;-64
2021/10/20 03:34:00;;;;;;;5.33;2.70;;;;;;;;;;5055846;28;20394;-64
2021/10/20 03:36:26;;;;;;;4.50;2.80;;;;;;;;;;5056175;28;20485;-63
2021/10/20 03:38:52;;;;;;;8.10;4.70;;;;;;;;;;5055934;28;20433;-63
2021/10/20 03:41:18;;;;;;;4.50;3.13;;;;;;;;;;5055105;28;21048;-64
2021/10/20 03:43:44;;;;;;;3.87;3.47;;;;;;;;;;5055637;28;20786;-63
2021/10/20 03:46:11;;;;;;;4.23;3.73;;;;;;;;;;5054753;28;20465;-64
2021/10/20 03:48:37;;;;;;;6.50;3.43;;;;;;;;;;5054937;28;20425;-63
2021/10/20 03:51:03;;;;;;;5.63;3.40;;;;;;;;;;5049787;28;20457;-64
2021/10/20 03:53:30;;;;;;;4.67;3.50;;;;;;;;;;5035189;28;20923;-64
2021/10/20 03:55:56;;;;;;;4.83;3.00;;;;;;;;;;5035239;28;20407;-64
2021/10/20 03:58:22;;;;;;;3.90;3.10;;;;;;;;;;5037497;28;20410;-65
2021/10/20 04:00:49;;;;;;;4.50;2.83;;;;;;;;;;5037477;28;20469;-63
2021/10/20 04:03:15;;;;;;;4.23;3.10;;;;;;;;;;5035581;28;20398;-63
2021/10/20 04:05:41;;;;;;;5.50;3.20;;;;;;;;;;5047031;28;20433;-63
2021/10/20 04:08:07;;;;;;;4.50;3.27;;;;;;;;;;5054846;28;20458;-63
2021/10/20 04:10:33;;;;;;;8.43;3.20;;;;;;;;;;5054695;28;20405;-63
2021/10/20 04:12:59;;;;;;;4.83;3.20;;;;;;;;;;5054734;28;20480;-63
2021/10/20 04:15:26;;;;;;;5.07;3.63;;;;;;;;;;5055449;28;20520;-63
2021/10/20 04:17:52;;;;;;;8.20;3.43;;;;;;;;;;5055810;28;20443;-63
2021/10/20 04:20:19;;;;;;;5.33;2.97;;;;;;;;;;5055467;28;20445;-63
2021/10/20 04:22:46;;;;;;;6.03;3.20;;;;;;;;;;5055488;28;20402;-63
2021/10/20 04:25:12;;;;;;;7.40;4.90;;;;;;;;;;5055256;28;20738;-63
2021/10/20 04:27:39;;;;;;;3.97;2.60;;;;;;;;;;5054677;28;20418;-62
2021/10/20 04:30:07;;;;;;;3.30;3.00;;;;;;;;;;5055750;28;20870;-63
2021/10/20 04:32:33;;;;;;;3.63;3.00;;;;;;;;;;5055045;28;20451;-63
2021/10/20 04:35:03;;;;;;;4.20;2.57;;;;;;;;;;5055282;28;20485;-63
2021/10/20 04:37:30;;;;;;;5.40;2.87;;;;;;;;;;5055144;28;20950;-63
2021/10/20 04:39:57;;;;;;;6.10;3.50;;;;;;;;;;5054675;28;20503;-63
2021/10/20 04:42:23;;;;;;;4.10;2.97;;;;;;;;;;5054847;28;20459;-62
2021/10/20 04:44:49;;;;;;;4.17;2.57;;;;;;;;;;5054409;28;20971;-63
2021/10/20 04:47:16;;;;;;;5.70;3.77;;;;;;;;;;5055473;28;20418;-64
2021/10/20 04:49:43;;;;;;;3.20;2.13;;;;;;;;;;5055207;28;20762;-64
2021/10/20 04:52:09;;;;;;;7.20;2.40;;;;;;;;;;5042154;28;20415;-63
2021/10/20 04:54:35;;;;;;;3.43;2.20;;;;;;;;;;5039457;28;20402;-63
2021/10/20 04:57:01;;;;;;;5.63;3.40;;;;;;;;;;5039509;28;20426;-63
2021/10/20 04:59:31;;;;;;;7.90;2.37;;;;;;;;;;5039863;28;20805;-63
2021/10/20 05:01:57;;;;;;;7.10;2.30;;;;;;;;;;5039692;28;20401;-63
2021/10/20 05:04:23;;;;;;;2.63;2.07;;;;;;;;;;5039411;28;20398;-63
2021/10/20 05:06:49;;;;;;;3.53;2.50;;;;;;;;;;5039804;28;20419;-63
2021/10/20 05:09:15;;;;;;;6.60;2.13;;;;;;;;;;5039479;28;20434;-64
2021/10/20 05:11:41;;;;;;;4.10;2.70;;;;;;;;;;5038109;28;20402;-63
2021/10/20 05:14:08;;;;;;;5.20;2.60;;;;;;;;;;5037683;28;20398;-63
2021/10/20 05:16:34;;;;;;;3.93;2.77;;;;;;;;;;5037777;28;20952;-63
2021/10/20 05:19:00;;;;;;;3.80;2.50;;;;;;;;;;5054400;28;20803;-64
2021/10/20 05:21:26;;;;;;;4.17;2.70;;;;;;;;;;5057925;28;20518;-63
2021/10/20 05:23:52;;;;;;;8.33;3.63;;;;;;;;;;5058432;28;20871;-63
2021/10/20 05:26:19;;;;;;;4.80;3.20;;;;;;;;;;5057661;28;20918;-63
2021/10/20 05:28:45;;;;;;;4.70;2.70;;;;;;;;;;5058147;28;20405;-63
2021/10/20 05:31:11;;;;;;;3.43;2.20;;;;;;;;;;5058396;28;20418;-62
2021/10/20 05:33:38;;;;;;;3.80;2.53;;;;;;;;;;5058008;28;20417;-64
2021/10/20 05:36:04;;;;;;;3.43;2.43;;;;;;;;;;5058233;28;20402;-63
2021/10/20 05:38:31;;;;;;;11.43;3.80;;;;;;;;;;5057897;28;20401;-63
2021/10/20 05:40:57;;;;;;;6.23;3.20;;;;;;;;;;5057726;28;20448;-63
2021/10/20 05:43:23;;;;;;;5.17;3.20;;;;;;;;;;5057667;28;20401;-63
2021/10/20 05:45:49;;;;;;;9.70;4.90;;;;;;;;;;5057430;28;20417;-65
2021/10/20 05:48:15;;;;;;;4.57;3.10;;;;;;;;;;5057871;28;20398;-65
2021/10/20 05:50:44;;;;;;;5.53;2.90;;;;;;;;;;5056708;28;20405;-65
2021/10/20 05:53:10;;;;;;;4.57;3.37;;;;;;;;;;5037582;28;20441;-65
2021/10/20 05:55:40;;;;;;;7.10;3.03;;;;;;;;;;5036824;28;20407;-65
2021/10/20 05:58:06;;;;;;;6.20;3.50;;;;;;;;;;5036824;28;20791;-64
2021/10/20 06:00:32;;;;;;;4.13;2.40;;;;;;;;;;5037323;28;20489;-64
2021/10/20 06:02:58;;;;;;;5.03;2.83;;;;;;;;;;5036982;28;20424;-65
2021/10/20 06:05:24;;;;;;;4.43;2.50;;;;;;;;;;5035898;28;20398;-65
2021/10/20 06:07:51;;;;;;;4.70;3.13;;;;;;;;;;5037682;28;20422;-65
2021/10/20 06:10:18;;;;;;;5.70;2.93;;;;;;;;;;5037448;28;20403;-65
2021/10/20 06:12:44;;;;;;;4.77;3.67;;;;;;;;;;5036979;28;20421;-64
2021/10/20 06:15:11;;;;;;;7.43;3.20;;;;;;;;;;5036890;28;20891;-65
2021/10/20 06:17:37;;;;;;;4.13;2.90;;;;;;;;;;5036515;28;20426;-64
2021/10/20 06:20:04;;;;;;;4.33;2.60;;;;;;;;;;5046138;28;20926;-65
2021/10/20 06:22:30;;;;;;;4.73;3.20;;;;;;;;;;5056923;28;20406;-64
2021/10/20 06:24:56;;;;;;;3.40;2.73;;;;;;;;;;5056894;28;20484;-65
2021/10/20 06:27:22;;;;;;;6.77;2.77;;;;;;;;;;5056995;28;20425;-64
2021/10/20 06:29:48;;;;;;;8.70;3.20;;;;;;;;;;5057156;28;20406;-64
2021/10/20 06:32:14;;;;;;;3.70;2.60;;;;;;;;;;5050216;28;20411;-64
2021/10/20 06:34:40;;;;;;;4.10;2.70;;;;;;;;;;5030982;28;20417;-64
2021/10/20 06:37:06;;;;;;;4.13;2.43;;;;;;;;;;5055248;28;20429;-64
2021/10/20 06:39:33;;;;;;;6.90;3.43;;;;;;;;;;5050470;28;20461;-63
2021/10/20 06:41:59;;;;;;;6.80;3.47;;;;;;;;;;5049953;28;20414;-64
2021/10/20 06:44:26;;;;;;;6.00;4.03;;;;;;;;;;5050583;28;20453;-64
2021/10/20 06:46:52;;;;;;;7.30;3.60;;;;;;;;;;5042028;28;20489;-63
2021/10/20 06:49:18;;;;;;;10.93;3.40;;;;;;;;;;5041072;28;20693;-63
2021/10/20 06:51:45;;;;;;;5.90;2.87;;;;;;;;;;5048194;28;20965;-63
2021/10/20 06:54:17;;;;;;;7.70;3.53;;;;;;;;;;5041447;28;20426;-63
2021/10/20 06:56:44;;;;;;;10.73;3.83;;;;;;;;;;5044392;28;20603;-64
2021/10/20 06:59:10;;;;;;;6.00;4.03;;;;;;;;;;5048967;28;20405;-64
2021/10/20 07:01:36;;;;;;;8.43;3.80;;;;;;;;;;5046544;28;20453;-63
2021/10/20 07:04:02;;;;;;;7.03;3.60;;;;;;;;;;5043820;28;20429;-64
2021/10/20 07:06:29;;;;;;;11.50;4.23;;;;;;;;;;5030933;28;20444;-65
2021/10/20 07:08:57;;;;;;;11.23;5.50;;;12.70;99.90;;;;;;5047464;28;20417;-63
2021/10/20 07:11:24;;;;;;;10.80;6.90;;;10.70;99.90;;;;;;5055423;28;20417;-64
2021/10/20 07:13:50;;;;;;;10.40;6.40;;;;;;;;;;5043762;28;20425;-63
2021/10/20 07:16:16;;;;;;;10.67;4.93;;;;;;;;;;5050051;28;20499;-64
2021/10/20 07:18:42;;;;;;;11.30;5.37;;;;;;;;;;5053551;28;20425;-64
2021/10/20 07:21:09;;;;;;;8.50;4.83;;;;;;;;;;5056871;28;20461;-63
2021/10/20 07:23:35;;;;;;;10.50;3.53;;;;;;;;;;5044025;28;20409;-63
2021/10/20 07:26:01;;;;;;;6.77;3.90;;;;;;;;;;5050807;28;20418;-64
2021/10/20 07:28:27;;;;;;;6.93;3.57;;;;;;;;;;5054154;28;20441;-64
2021/10/20 07:30:53;;;;;;;5.53;2.90;;;;;;;;;;5058144;28;20429;-64
2021/10/20 07:33:19;;;;;;;5.93;3.23;;;;;;;;;;5049624;28;20651;-66
2021/10/20 07:35:45;;;;;;;6.67;3.70;;;;;;;;;;5047978;28;20463;-64
2021/10/20 07:38:11;;;;;;;5.80;2.93;;;;;;;;;;5057221;28;20417;-64
2021/10/20 07:40:37;;;;;;;8.30;3.43;;;10.80;99.90;;;;;;5052333;28;20474;-65
2021/10/20 07:43:03;;;;;;;6.07;3.50;;;11.70;99.90;;;;;;5045973;28;20483;-65
2021/10/20 07:45:28;;;;;;;8.37;3.87;;;11.80;99.90;;;;;;5057151;28;20179;-64
2021/10/20 07:47:54;;;;;;;7.60;3.60;;;11.90;99.90;;;;;;5041886;28;20223;-64
2021/10/20 07:50:22;;;;;;;9.43;4.20;;;12.00;99.90;;;;;;5045032;28;20191;-63
2021/10/20 07:52:49;;;;;;;6.00;4.00;;;12.10;99.90;;;;;;5048889;28;20207;-64
2021/10/20 07:55:21;;;;;;;9.37;4.40;;;12.20;99.90;;;;;;5041692;28;20418;-65
2021/10/20 07:57:47;;;;;;;12.83;4.73;;;12.30;99.90;;;;;;5051008;28;20449;-64
2021/10/20 08:00:13;;;;;;;8.83;4.23;;;12.40;99.90;;;;;;5038969;28;20497;-63
2021/10/20 08:02:39;;;;;;;5.20;3.40;;;12.50;99.90;;;;;;5046372;28;20186;-63
2021/10/20 08:05:05;;;;;;;4.07;2.83;;;12.60;99.90;;;;;;5045702;28;20418;-65
2021/10/20 08:07:31;;;;;;;8.47;3.80;;;12.80;99.90;;;;;;5050710;28;20282;-65
2021/10/20 08:09:57;;;;;;;5.63;3.30;;;13.00;99.90;;;;;;5040979;28;20580;-66
2021/10/20 08:12:23;;;;;;;13.30;4.43;;;13.00;99.90;;;;;;5039138;28;20187;-66
2021/10/20 08:14:53;;;;;;;6.50;2.77;;;13.20;99.90;;;;;;5051151;28;20179;-64
2021/10/20 08:17:19;;;;;;;5.87;2.90;;;13.30;99.90;;;;;;5049908;28;20434;-63
2021/10/20 08:19:46;;;;;;;5.43;2.50;;;13.60;99.90;;;;;;5046854;28;20504;-66
2021/10/20 08:22:11;;;;;;;4.73;2.63;;;13.90;99.90;;;;;;5042000;28;20422;-65
2021/10/20 08:24:37;;;;;;;3.60;1.73;;;14.00;99.90;;;;;;5042510;28;20926;-65
2021/10/20 08:27:03;;;;;;;4.53;2.27;;;14.10;99.90;;;;;;5043179;28;20595;-65
2021/10/20 08:29:29;;;;;;;3.90;1.93;;;14.30;99.90;;;;;;5049626;28;20183;-65
2021/10/20 08:31:55;;;;;;;5.57;2.00;;;;;;;;;;5048142;28;20198;-68
2021/10/20 08:34:22;;;;;;;3.20;1.70;;;14.60;99.90;;;;;;5046674;28;20425;-66
2021/10/20 08:36:48;;;;;;;3.20;2.20;;;16.30;99.90;;;;;;5050085;28;20448;-66
2021/10/20 08:39:15;;;;;;;4.93;2.10;;;16.80;99.90;;;;;;5046026;28;20903;-66
2021/10/20 08:41:41;;;;;;;3.30;1.93;;;16.70;99.90;;;;;;5041366;28;20727;-67
2021/10/20 08:44:07;;;;;;;2.90;1.50;;;17.10;99.90;;;;;;5045629;28;20414;-67
2021/10/20 08:46:33;;;;;;;3.27;1.70;;;17.10;99.90;;;;;;5043671;28;20469;-68
2021/10/20 08:49:01;;;;;;;2.97;1.40;;;16.80;99.90;;;;;;5038052;28;20457;-68
2021/10/20 08:51:27;;;;;;;2.23;1.33;;;16.50;99.90;;;;;;5035585;28;20861;-68
2021/10/20 08:53:56;;;;;;;2.80;1.70;;;16.30;99.90;;;;;;5042270;28;20445;-68
2021/10/20 08:56:22;;;;;;;4.30;1.60;;;16.10;99.90;;;;;;5045871;28;20449;-68
2021/10/20 08:58:47;;;;;;;4.30;1.33;;;16.10;99.90;;;;;;5047130;28;20768;-68
2021/10/20 09:01:13;;;;;;;2.27;1.33;;;16.10;99.90;;;;;;5044311;28;20801;-68
2021/10/20 09:03:39;;;;;;;2.20;1.57;;;16.20;99.90;;;;;;5046249;28;20259;-67
2021/10/20 09:06:05;;;;;;;3.80;1.57;;;16.20;99.90;;;;;;5040568;28;20628;-67
2021/10/20 09:08:44;;;;;;;2.20;1.50;;;16.30;99.90;;;;;;5039683;28;20425;-67
2021/10/20 09:11:43;;;;;;;3.93;2.03;;;16.50;99.90;;;;;;5043505;28;20193;-67
2021/10/20 09:14:14;;;;;;;3.00;1.20;;;16.50;99.90;;;;;;5056323;28;21072;-67
2021/10/20 09:16:43;;;;;;;2.57;1.50;;;16.70;99.90;;;;;;5050918;28;20814;-68
2021/10/20 09:19:18;;;;;;;2.83;1.47;;;16.80;99.90;;;;;;5049853;28;20500;-66
2021/10/20 09:22:17;;;;;;;2.40;1.10;;;16.80;99.90;;;;;;5054476;28;20797;-67
2021/10/20 09:24:44;;;;;;;2.43;1.43;;;17.00;99.90;;;;;;5028134;28;20423;-68
2021/10/20 09:27:26;;;;;;;4.57;1.20;;;17.10;99.90;;;;;;5043651;28;20459;-68
2021/10/20 09:30:12;;;;;;;4.57;1.57;;;17.20;99.90;;;;;;5035865;28;20553;-67
2021/10/20 09:32:38;;;;;;;5.10;1.83;;;17.30;99.90;;;;;;5044067;28;20500;-67
2021/10/20 09:35:04;;;;;;;2.73;1.63;;;17.40;99.90;;;;;;5054406;28;20511;-67
2021/10/20 09:37:30;;;;;;;3.33;1.60;;;17.50;99.90;;;;;;5042630;28;20227;-68
2021/10/20 09:40:10;;;;;;;2.97;1.63;;;17.70;99.90;;;;;;5053723;28;20457;-66
2021/10/20 09:42:56;;;;;;;2.20;1.40;;;17.80;99.90;;;;;;5048114;28;20417;-65
2021/10/20 09:45:23;;;;;;;3.00;1.90;;;17.80;99.90;;;;;;5042857;28;20490;-67
2021/10/20 09:47:50;;;;;;;3.30;1.60;;;17.80;99.90;;;;;;5049513;28;20816;-67
2021/10/20 09:50:17;;;;;;;2.37;1.77;;;17.80;99.90;;;;;;5047761;28;20495;-65
2021/10/20 09:52:50;;;;;;;2.63;1.40;;;17.80;99.90;;;;;;5047262;28;20437;-66
2021/10/20 09:55:28;;;;;;;3.17;1.80;;;17.90;99.90;;;;;;5053671;28;20431;-66
2021/10/20 09:58:18;;;;;;;3.20;1.40;;;18.00;99.90;;;;;;5050119;28;21063;-67
2021/10/20 10:00:44;;;;;;;2.40;1.67;;;18.00;99.90;;;;;;5049491;28;20449;-67
2021/10/20 10:03:11;;;;;;;4.27;1.67;;;18.10;99.90;;;;;;5049775;28;20918;-64
2021/10/20 10:05:38;;;;;;;4.47;1.80;;;18.20;99.90;;;;;;5045747;28;21709;-66
2021/10/20 10:08:04;;;;;;;2.30;1.40;;;18.20;99.90;;;;;;5048184;28;20778;-65
2021/10/20 10:10:30;;;;;;;4.50;2.00;;;18.20;99.90;;;;;;5045138;28;20771;-67
2021/10/20 10:13:21;;;;;;;7.80;2.13;;;18.40;99.90;;;;;;5044935;28;20512;-68
2021/10/20 10:15:48;;;;;;;3.40;1.73;;;18.40;99.90;;;;;;5037490;28;20551;-68
2021/10/20 10:18:15;;;;;;;3.40;1.67;;;18.50;99.90;;;;;;5049781;28;20774;-70
2021/10/20 10:20:43;;;;;;;3.07;1.50;;;18.50;99.90;;;;;;5048781;28;20465;-69
2021/10/20 10:23:27;;;;;;;2.80;1.40;;;18.60;99.90;;;;;;5044957;28;20845;-70
2021/10/20 10:26:02;;;;;;;2.47;1.53;;;18.70;99.90;;;;;;5049041;28;20414;-71
2021/10/20 10:28:35;;;;;;;5.63;1.83;;;18.80;99.90;;;;;;5051902;28;20405;-71
2021/10/20 10:31:06;;;;;;;2.43;1.47;;;19.00;99.90;;;;;;5046536;28;20424;-66
2021/10/20 10:33:33;;;;;;;4.00;1.53;;;19.10;99.90;;;;;;5044175;28;20421;-67
2021/10/20 10:36:09;;;;;;;2.13;1.50;;;19.20;99.90;;;;;;5051490;28;20922;-66
2021/10/20 10:38:45;;;;;;;3.40;1.50;;;19.30;99.90;;;;;;5050903;28;20766;-66
2021/10/20 10:41:19;;;;;;;3.53;1.50;;;19.50;99.90;;;;;;5045056;28;20464;-66
2021/10/20 10:44:08;;;;;;;5.03;1.57;;;19.60;99.90;;;;;;5047985;28;20810;-66
2021/10/20 10:46:36;;;;;;;5.27;1.53;;;19.60;99.90;;;;;;5040694;28;20454;-66
2021/10/20 10:49:22;;;;;;;2.67;1.93;;;19.60;99.90;;;;;;5050172;28;20449;-67
2021/10/20 10:52:06;;;;;;;3.23;1.97;;;19.80;99.90;;;;;;5039185;28;20434;-67
2021/10/20 10:54:39;;;;;;;2.57;1.57;;;19.80;99.90;;;;;;5045520;28;20418;-66
2021/10/20 10:57:14;;;;;;;4.53;1.50;;;19.90;99.90;;;;;;5045802;28;20441;-66
2021/10/20 11:00:17;;;;;;;2.40;1.60;;;20.00;99.90;;;;;;5041400;28;20525;-67
2021/10/20 11:02:51;;;;;;;4.50;1.90;;;19.80;99.90;;;;;;5042286;28;20537;-66
2021/10/20 11:05:37;;;;;;;4.20;1.70;;;19.70;99.90;;;;;;5048928;28;20867;-67
2021/10/20 11:08:06;;;;;;;4.53;2.67;;;19.70;99.90;;;;;;5049156;28;20480;-66
2021/10/20 11:10:34;;;;;;;4.07;2.10;;;19.60;99.90;;;;;;5048609;28;20421;-68
2021/10/20 11:13:01;;;;;;;5.93;1.80;;;19.80;99.90;;;;;;5044497;28;20414;-66
2021/10/20 11:15:28;;;;;;;2.93;2.00;;;19.90;99.90;;;;;;5050842;28;20418;-66
2021/10/20 11:17:57;;;;;;;2.80;1.83;;;20.00;99.90;;;;;;5058344;28;20437;-67
2021/10/20 11:20:25;;;;;;;4.70;2.00;;;20.20;99.90;;;;;;5051375;28;20827;-67
2021/10/20 11:22:54;;;;;;;4.10;2.10;;;20.30;99.90;;;;;;5041345;28;20784;-67
2021/10/20 11:25:21;;;;;;;4.47;2.17;;;20.30;99.90;;;;;;5055634;28;20413;-67
2021/10/20 11:27:52;;;;;;;5.03;2.00;;;20.40;99.90;;;;;;5055021;28;20445;-67
2021/10/20 11:30:20;;;;;;;3.60;2.10;;;20.50;99.90;;;;;;5055552;28;20429;-67
2021/10/20 11:32:46;;;;;;;3.63;2.10;;;20.60;99.90;;;;;;5059489;28;20421;-67
2021/10/20 11:35:21;;;;;;;2.60;2.20;;;20.60;99.90;;;;;;5056664;28;20421;-67
2021/10/20 11:37:56;;;;;;;2.90;2.00;;;20.50;99.90;;;;;;5047187;28;20446;-68
2021/10/20 11:40:24;;;;;;;3.80;1.80;;;20.40;99.90;;;;;;5051845;28;20543;-67
2021/10/20 11:42:51;;;;;;;3.60;2.00;;;20.40;99.90;;;;;;5052753;28;20422;-67
2021/10/20 11:45:18;;;;;;;3.30;2.37;;;20.50;99.90;;;;;;5048189;28;20431;-67
2021/10/20 11:47:45;;;;;;;3.97;2.27;;;20.50;99.90;;;;;;5043404;28;20433;-67
2021/10/20 11:50:12;;;;;;;4.30;2.27;;;;;;;;;;5050376;28;20851;-67
2021/10/20 11:52:40;;;;;;;3.40;2.30;;;;;;;;;;5054879;28;20412;-68
2021/10/20 11:55:06;;;;;;;3.40;2.17;;;;;;;;;;5036592;28;20422;-68
2021/10/20 11:57:32;;;;;;;3.30;2.03;;;;;;;;;;5052005;28;20445;-68
2021/10/20 11:59:58;;;;;;;3.70;2.10;;;;;;;;;;5054701;28;20469;-68
2021/10/20 12:02:31;;;;;;;2.63;1.90;;;;;;;;;;5045022;28;20424;-67
2021/10/20 12:04:59;;;;;;;3.07;2.20;;;;;;;;;;5051077;28;20420;-67
2021/10/20 12:07:29;;;;;;;3.90;2.23;;;;;;;;;;5048559;28;20942;-69
2021/10/20 12:09:56;;;;;;;3.20;2.83;;;;;;;;;;5050764;28;21175;-68
2021/10/20 12:12:22;;;;;;;3.70;2.23;;;;;;;;;;5059531;28;20893;-68
2021/10/20 12:14:48;;;;;;;4.53;1.93;;;;;;;;;;5050046;28;20798;-68
2021/10/20 12:17:15;;;;;;;4.60;2.20;;;;;;;;;;5050015;28;20503;-68
2021/10/20 12:19:43;;;;;;;2.80;1.90;;;;;;;;;;5050950;28;20428;-68
2021/10/20 12:22:11;;;;;;;2.80;1.77;;;;;;;;;;5051709;28;20407;-68
2021/10/20 12:24:41;;;;;;;4.47;2.10;;;;;;;;;;5048394;28;20405;-68
2021/10/20 12:27:09;;;;;;;3.07;2.20;;;;;;;;;;5046140;28;20489;-68
2021/10/20 12:29:42;;;;;;;3.70;2.37;;;;;;;;;;5050312;28;20413;-68
2021/10/20 12:32:13;;;;;;;3.00;2.00;;;;;;;;;;5052755;28;20402;-68
2021/10/20 12:34:49;;;;;;;5.90;2.57;;;;;;;;;;5058713;28;20406;-67
2021/10/20 12:37:16;;;;;;;4.53;2.83;;;;;;;;;;5050280;28;20760;-68
2021/10/20 12:39:42;;;;;;;3.57;2.37;;;;;;;;;;5050987;28;20546;-68
2021/10/20 12:42:08;;;;;;;3.30;2.73;;;;;;;;;;5043397;28;20432;-68
2021/10/20 12:44:34;;;;;;;2.87;2.17;;;;;;;;;;5043049;28;20418;-68
2021/10/20 12:47:01;;;;;;;3.23;2.37;;;;;;;;;;5047647;28;20445;-69
2021/10/20 12:49:33;;;;;;;3.00;2.23;;;;;;;;;;5052342;28;20413;-68
2021/10/20 12:51:59;;;;;;;2.67;1.93;;;;;;;;;;5046064;28;20407;-68
2021/10/20 12:54:29;;;;;;;4.37;2.60;;;;;;;;;;5050610;28;20431;-68
2021/10/20 12:56:56;;;;;;;4.07;2.03;;;;;;;;;;5056329;28;20556;-68
2021/10/20 12:59:25;;;;;;;4.80;2.63;;;;;;;;;;5048888;28;20418;-68
2021/10/20 13:01:52;;;;;;;7.10;2.30;;;;;;;;;;5053743;28;20493;-68
2021/10/20 13:04:18;;;;;;;4.13;2.50;;;;;;;;;;5055276;28;20421;-67
2021/10/20 13:06:44;;;;;;;2.97;2.03;;;;;;;;;;5051974;28;20433;-66
2021/10/20 13:09:10;;;;;;;4.00;2.53;;;;;;;;;;5058901;28;20523;-68
2021/10/20 13:11:36;;;;;;;4.83;3.00;;;;;;;;;;5056947;28;20547;-72
2021/10/20 13:14:02;;;;;;;3.07;2.40;;;;;;;;;;5050532;28;20421;-65
2021/10/20 13:16:29;;;;;;;3.13;2.53;;;;;;;;;;5048684;28;20441;-65
2021/10/20 13:18:55;;;;;;;4.10;2.63;;;;;;;;;;5049315;28;20512;-64
2021/10/20 13:21:21;;;;;;;3.77;2.20;;;;;;;;;;5058368;28;20465;-65
2021/10/20 13:23:47;;;;;;;5.10;2.40;;;;;;;;;;5055029;28;20410;-72
2021/10/20 13:26:16;;;;;;;3.83;2.30;;;;;;;;;;5052453;28;20433;-70
2021/10/20 13:28:42;;;;;;;4.60;2.70;;;;;;;;;;5057640;28;20420;-69
2021/10/20 13:31:08;;;;;;;3.80;2.60;;;;;;;;;;5056312;28;20445;-67
2021/10/20 13:33:34;;;;;;;8.17;2.27;;;;;;;;;;5053029;28;20505;-69
2021/10/20 13:36:00;;;;;;;4.90;2.80;;;;;;;;;;5054464;28;20471;-70
2021/10/20 13:38:27;;;;;;;2.80;2.40;;;;;;;;;;5052780;28;20430;-68
2021/10/20 13:40:54;;;;;;;6.10;2.70;;;;;;;;;;5057179;28;20536;-68
2021/10/20 13:43:27;;;;;;;7.20;3.13;;;;;;;;;;5035760;28;20422;-69
2021/10/20 13:45:54;;;;;;;5.07;2.20;;;;;;;;;;5050700;28;20440;-69
2021/10/20 13:48:20;;;;;;;5.93;2.60;;;;;;;;;;5052142;28;20425;-74
2021/10/20 13:50:46;;;;;;;2.60;2.07;;;;;;;;;;5048564;28;20918;-70
2021/10/20 13:53:12;;;;;;;3.80;2.60;;;;;;;;;;5041474;28;20776;-70
2021/10/20 13:55:39;;;;;;;4.50;2.17;;;;;;;;;;5044271;28;20899;-71
2021/10/20 13:58:05;;;;;;;3.70;2.47;;;;;;;;;;5048648;28;20486;-65
2021/10/20 14:00:31;;;;;;;3.83;2.40;;;;;;;;;;5055505;28;20536;-68
2021/10/20 14:02:57;;;;;;;3.53;2.67;;;;;;;;;;5049025;28;20425;-70
2021/10/20 14:05:24;;;;;;;3.23;2.27;;;;;;;;;;5046385;28;20417;-69
2021/10/20 14:07:50;;;;;;;5.20;2.20;;;;;;;;;;5053320;28;20433;-64
2021/10/20 14:10:16;;;;;;;3.80;2.50;;;;;;;;;;5044779;28;20414;-65